sensor_id;sensor_type;location;lat;lon;timestamp;pressure;altitude;pressure_sealevel;temperature;humidity
10716;BME280;5409;42.620;23.316;2023-04-01T00:01:39;91388.84;;;12.27;73.42
10716;BME280;5409;42.620;23.316;2023-04-01T00:04:07;91397.34;;;12.29;73.50
10716;BME280;5409;42.620;23.316;2023-04-01T00:06:34;91387.28;;;12.21;76.35
10716;BME280;5409;42.620;23.316;2023-04-01T00:09:01;91392.94;;;12.17;74.88
10716;BME280;5409;42.620;23.316;2023-04-01T00:11:27;91391.88;;;12.15;76.35
10716;BME280;5409;42.620;23.316;2023-04-01T00:13:54;91395.25;;;12.10;75.59
10716;BME280;5409;42.620;23.316;2023-04-01T00:16:21;91383.03;;;12.20;68.50
10716;BME280;5409;42.620;23.316;2023-04-01T00:18:49;91387.88;;;12.73;62.08
10716;BME280;5409;42.620;23.316;2023-04-01T00:21:19;91390.03;;;12.84;63.19
10716;BME280;5409;42.620;23.316;2023-04-01T00:23:47;91384.28;;;12.82;66.51
10716;BME280;5409;42.620;23.316;2023-04-01T00:26:14;91414.88;;;12.37;76.94
10716;BME280;5409;42.620;23.316;2023-04-01T00:28:44;91389.91;;;12.15;79.38
10716;BME280;5409;42.620;23.316;2023-04-01T00:31:12;91403.94;;;11.94;82.41
10716;BME280;5409;42.620;23.316;2023-04-01T00:33:39;91359.09;;;11.48;83.92
10716;BME280;5409;42.620;23.316;2023-04-01T00:36:08;91382.88;;;11.71;85.63
10716;BME280;5409;42.620;23.316;2023-04-01T00:38:36;91359.28;;;11.44;88.41
10716;BME280;5409;42.620;23.316;2023-04-01T00:41:04;91360.72;;;11.54;89.56
10716;BME280;5409;42.620;23.316;2023-04-01T00:43:32;91361.19;;;11.53;86.91
10716;BME280;5409;42.620;23.316;2023-04-01T00:45:59;91367.75;;;11.46;88.56
10716;BME280;5409;42.620;23.316;2023-04-01T00:48:29;91360.22;;;11.41;91.98
10716;BME280;5409;42.620;23.316;2023-04-01T00:50:59;91354.19;;;11.37;91.07
10716;BME280;5409;42.620;23.316;2023-04-01T00:53:28;91367.31;;;11.25;93.30
10716;BME280;5409;42.620;23.316;2023-04-01T00:56:04;91369.81;;;11.14;94.84
10716;BME280;5409;42.620;23.316;2023-04-01T00:58:36;91364.13;;;11.03;91.25
10716;BME280;5409;42.620;23.316;2023-04-01T01:01:06;91366.88;;;11.03;93.84
10716;BME280;5409;42.620;23.316;2023-04-01T01:03:34;91359.66;;;10.91;96.09
10716;BME280;5409;42.620;23.316;2023-04-01T01:06:11;91344.56;;;10.81;97.74
10716;BME280;5409;42.620;23.316;2023-04-01T01:09:13;91330.88;;;10.66;97.83
10716;BME280;5409;42.620;23.316;2023-04-01T01:11:48;91317.59;;;10.59;99.34
10716;BME280;5409;42.620;23.316;2023-04-01T01:14:25;91318.41;;;10.51;96.60
10716;BME280;5409;42.620;23.316;2023-04-01T01:16:55;91314.41;;;10.61;89.51
10716;BME280;5409;42.620;23.316;2023-04-01T01:20:06;91320.00;;;10.57;97.49
10716;BME280;5409;42.620;23.316;2023-04-01T01:23:02;91314.50;;;10.43;99.63
10716;BME280;5409;42.620;23.316;2023-04-01T01:25:40;91303.22;;;10.26;100.00
10716;BME280;5409;42.620;23.316;2023-04-01T01:28:32;91307.97;;;10.17;100.00
10716;BME280;5409;42.620;23.316;2023-04-01T01:31:09;91300.41;;;10.12;100.00
10716;BME280;5409;42.620;23.316;2023-04-01T01:33:59;91300.59;;;10.09;95.10
10716;BME280;5409;42.620;23.316;2023-04-01T01:36:32;91301.91;;;10.22;92.84
10716;BME280;5409;42.620;23.316;2023-04-01T01:39:00;91316.69;;;10.30;93.12
10716;BME280;5409;42.620;23.316;2023-04-01T01:41:29;91309.97;;;10.40;90.14
10716;BME280;5409;42.620;23.316;2023-04-01T01:43:57;91307.53;;;10.42;91.94
10716;BME280;5409;42.620;23.316;2023-04-01T01:46:27;91309.47;;;10.50;87.03
10716;BME280;5409;42.620;23.316;2023-04-01T01:48:56;91305.19;;;10.58;88.49
10716;BME280;5409;42.620;23.316;2023-04-01T01:51:24;91299.44;;;10.56;93.15
10716;BME280;5409;42.620;23.316;2023-04-01T01:53:54;91310.19;;;10.60;89.15
10716;BME280;5409;42.620;23.316;2023-04-01T01:56:23;91282.06;;;10.77;89.56
10716;BME280;5409;42.620;23.316;2023-04-01T01:58:54;91269.00;;;10.81;86.26
10716;BME280;5409;42.620;23.316;2023-04-01T02:01:24;91277.28;;;10.87;84.15
10716;BME280;5409;42.620;23.316;2023-04-01T02:03:53;91271.38;;;10.88;91.22
10716;BME280;5409;42.620;23.316;2023-04-01T02:06:23;91269.09;;;10.87;86.99
10716;BME280;5409;42.620;23.316;2023-04-01T02:08:52;91266.97;;;10.91;82.68
10716;BME280;5409;42.620;23.316;2023-04-01T02:11:26;91268.38;;;11.24;74.82
10716;BME280;5409;42.620;23.316;2023-04-01T02:13:55;91274.75;;;11.21;84.34
10716;BME280;5409;42.620;23.316;2023-04-01T02:16:25;91252.72;;;11.10;78.14
10716;BME280;5409;42.620;23.316;2023-04-01T02:18:56;91253.88;;;11.18;71.15
10716;BME280;5409;42.620;23.316;2023-04-01T02:21:28;91270.31;;;11.61;63.50
10716;BME280;5409;42.620;23.316;2023-04-01T02:23:57;91264.72;;;11.99;59.78
10716;BME280;5409;42.620;23.316;2023-04-01T02:26:28;91267.59;;;12.39;57.13
10716;BME280;5409;42.620;23.316;2023-04-01T02:28:56;91263.06;;;12.36;61.62
10716;BME280;5409;42.620;23.316;2023-04-01T02:31:24;91267.28;;;12.37;66.21
10716;BME280;5409;42.620;23.316;2023-04-01T02:33:52;91262.59;;;12.23;72.08
10716;BME280;5409;42.620;23.316;2023-04-01T02:36:20;91260.50;;;11.98;75.44
10716;BME280;5409;42.620;23.316;2023-04-01T02:38:47;91261.53;;;11.86;70.97
10716;BME280;5409;42.620;23.316;2023-04-01T02:41:16;91248.72;;;11.92;61.00
10716;BME280;5409;42.620;23.316;2023-04-01T02:43:44;91261.75;;;12.32;57.31
10716;BME280;5409;42.620;23.316;2023-04-01T02:46:10;91253.47;;;12.26;59.72
10716;BME280;5409;42.620;23.316;2023-04-01T02:48:37;91272.97;;;12.34;63.26
10716;BME280;5409;42.620;23.316;2023-04-01T02:51:04;91274.13;;;12.13;58.23
10716;BME280;5409;42.620;23.316;2023-04-01T02:53:31;91278.31;;;12.43;62.79
10716;BME280;5409;42.620;23.316;2023-04-01T02:55:58;91290.13;;;12.20;70.24
10716;BME280;5409;42.620;23.316;2023-04-01T02:58:25;91280.91;;;12.03;71.75
10716;BME280;5409;42.620;23.316;2023-04-01T03:00:53;91293.25;;;11.98;72.77
10716;BME280;5409;42.620;23.316;2023-04-01T03:03:20;91288.00;;;12.09;58.72
10716;BME280;5409;42.620;23.316;2023-04-01T03:05:47;91304.00;;;12.16;65.57
10716;BME280;5409;42.620;23.316;2023-04-01T03:08:14;91243.38;;;11.83;69.11
10716;BME280;5409;42.620;23.316;2023-04-01T03:10:41;91295.53;;;12.00;73.40
10716;BME280;5409;42.620;23.316;2023-04-01T03:13:07;91294.88;;;11.90;76.12
10716;BME280;5409;42.620;23.316;2023-04-01T03:15:34;91291.97;;;11.79;78.07
10716;BME280;5409;42.620;23.316;2023-04-01T03:18:03;91297.50;;;11.70;76.50
10716;BME280;5409;42.620;23.316;2023-04-01T03:20:29;91294.94;;;11.67;79.75
10716;BME280;5409;42.620;23.316;2023-04-01T03:22:56;91297.22;;;11.68;83.95
10716;BME280;5409;42.620;23.316;2023-04-01T03:25:23;91298.41;;;11.38;100.00
10716;BME280;5409;42.620;23.316;2023-04-01T03:27:50;91311.63;;;11.31;88.72
10716;BME280;5409;42.620;23.316;2023-04-01T03:30:17;91298.00;;;11.31;96.20
10716;BME280;5409;42.620;23.316;2023-04-01T03:32:44;91299.66;;;11.14;100.00
10716;BME280;5409;42.620;23.316;2023-04-01T03:35:12;91305.22;;;10.96;100.00
10716;BME280;5409;42.620;23.316;2023-04-01T03:37:39;91299.28;;;10.60;100.00
10716;BME280;5409;42.620;23.316;2023-04-01T03:40:07;91284.03;;;10.53;100.00
10716;BME280;5409;42.620;23.316;2023-04-01T03:42:34;91294.72;;;10.33;100.00
10716;BME280;5409;42.620;23.316;2023-04-01T03:45:00;91292.25;;;10.12;100.00
10716;BME280;5409;42.620;23.316;2023-04-01T03:47:27;91278.53;;;10.07;100.00
10716;BME280;5409;42.620;23.316;2023-04-01T03:49:55;91263.09;;;9.95;100.00
10716;BME280;5409;42.620;23.316;2023-04-01T03:52:23;91262.50;;;9.58;100.00
10716;BME280;5409;42.620;23.316;2023-04-01T03:54:50;91252.41;;;9.41;100.00
10716;BME280;5409;42.620;23.316;2023-04-01T03:57:16;91230.84;;;9.19;100.00
10716;BME280;5409;42.620;23.316;2023-04-01T03:59:43;91248.69;;;9.11;100.00
10716;BME280;5409;42.620;23.316;2023-04-01T04:02:10;91214.88;;;9.03;100.00
10716;BME280;5409;42.620;23.316;2023-04-01T04:04:37;91206.41;;;9.02;100.00
10716;BME280;5409;42.620;23.316;2023-04-01T04:07:03;91207.78;;;9.06;100.00
10716;BME280;5409;42.620;23.316;2023-04-01T04:09:32;91208.09;;;9.08;100.00
10716;BME280;5409;42.620;23.316;2023-04-01T04:11:59;91202.78;;;9.13;100.00
10716;BME280;5409;42.620;23.316;2023-04-01T04:14:26;91190.22;;;9.16;100.00
10716;BME280;5409;42.620;23.316;2023-04-01T04:16:53;91200.94;;;9.28;100.00
10716;BME280;5409;42.620;23.316;2023-04-01T04:19:19;91193.03;;;9.39;100.00
10716;BME280;5409;42.620;23.316;2023-04-01T04:21:46;91191.03;;;9.49;100.00
10716;BME280;5409;42.620;23.316;2023-04-01T04:24:13;91182.53;;;9.56;100.00
10716;BME280;5409;42.620;23.316;2023-04-01T04:26:41;91178.88;;;9.68;100.00
10716;BME280;5409;42.620;23.316;2023-04-01T04:29:08;91164.16;;;9.74;100.00
10716;BME280;5409;42.620;23.316;2023-04-01T04:31:34;91167.72;;;9.89;100.00
10716;BME280;5409;42.620;23.316;2023-04-01T04:34:01;91155.47;;;9.85;100.00
10716;BME280;5409;42.620;23.316;2023-04-01T04:36:28;91162.94;;;9.75;100.00
10716;BME280;5409;42.620;23.316;2023-04-01T04:38:55;91096.34;;;9.38;100.00
10716;BME280;5409;42.620;23.316;2023-04-01T04:41:23;91149.47;;;9.81;100.00
10716;BME280;5409;42.620;23.316;2023-04-01T04:43:54;91139.34;;;9.81;100.00
10716;BME280;5409;42.620;23.316;2023-04-01T04:46:21;91135.44;;;9.73;100.00
10716;BME280;5409;42.620;23.316;2023-04-01T04:48:48;91125.91;;;9.78;100.00
10716;BME280;5409;42.620;23.316;2023-04-01T04:51:15;91127.41;;;9.79;100.00
10716;BME280;5409;42.620;23.316;2023-04-01T04:53:42;91125.38;;;9.65;100.00
10716;BME280;5409;42.620;23.316;2023-04-01T04:56:10;91122.31;;;9.72;100.00
10716;BME280;5409;42.620;23.316;2023-04-01T04:58:37;91116.97;;;9.77;100.00
10716;BME280;5409;42.620;23.316;2023-04-01T05:01:09;91133.78;;;9.76;100.00
10716;BME280;5409;42.620;23.316;2023-04-01T05:03:37;91129.38;;;9.78;100.00
10716;BME280;5409;42.620;23.316;2023-04-01T05:06:04;91118.78;;;9.80;100.00
10716;BME280;5409;42.620;23.316;2023-04-01T05:08:31;91126.53;;;9.73;100.00
10716;BME280;5409;42.620;23.316;2023-04-01T05:10:59;91120.13;;;9.61;100.00
10716;BME280;5409;42.620;23.316;2023-04-01T05:13:26;91121.47;;;9.57;100.00
10716;BME280;5409;42.620;23.316;2023-04-01T05:15:53;91120.44;;;9.54;100.00
10716;BME280;5409;42.620;23.316;2023-04-01T05:18:22;91115.44;;;9.53;100.00
10716;BME280;5409;42.620;23.316;2023-04-01T05:20:50;91105.25;;;9.39;100.00
10716;BME280;5409;42.620;23.316;2023-04-01T05:23:17;91095.00;;;9.34;100.00
10716;BME280;5409;42.620;23.316;2023-04-01T05:25:46;91088.06;;;9.33;100.00
10716;BME280;5409;42.620;23.316;2023-04-01T05:28:13;91077.41;;;9.20;100.00
10716;BME280;5409;42.620;23.316;2023-04-01T05:30:40;91088.50;;;9.31;100.00
10716;BME280;5409;42.620;23.316;2023-04-01T05:33:08;91085.97;;;9.28;100.00
10716;BME280;5409;42.620;23.316;2023-04-01T05:35:36;91085.16;;;9.36;100.00
10716;BME280;5409;42.620;23.316;2023-04-01T05:38:03;91057.44;;;9.23;100.00
10716;BME280;5409;42.620;23.316;2023-04-01T05:40:31;91084.84;;;9.43;100.00
10716;BME280;5409;42.620;23.316;2023-04-01T05:42:58;91110.44;;;9.60;100.00
10716;BME280;5409;42.620;23.316;2023-04-01T05:45:25;91093.84;;;9.82;100.00
10716;BME280;5409;42.620;23.316;2023-04-01T05:47:52;91086.47;;;9.97;100.00
10716;BME280;5409;42.620;23.316;2023-04-01T05:50:19;91077.78;;;10.07;100.00
10716;BME280;5409;42.620;23.316;2023-04-01T05:52:47;91083.66;;;10.15;100.00
10716;BME280;5409;42.620;23.316;2023-04-01T05:55:14;91071.28;;;10.28;100.00
10716;BME280;5409;42.620;23.316;2023-04-01T05:57:41;91080.97;;;10.29;100.00
10716;BME280;5409;42.620;23.316;2023-04-01T06:00:09;91076.91;;;10.39;100.00
10716;BME280;5409;42.620;23.316;2023-04-01T06:02:36;91087.09;;;10.53;100.00
10716;BME280;5409;42.620;23.316;2023-04-01T06:05:12;91073.69;;;10.64;100.00
10716;BME280;5409;42.620;23.316;2023-04-01T06:07:40;91073.84;;;10.75;100.00
10716;BME280;5409;42.620;23.316;2023-04-01T06:10:12;91078.09;;;10.90;100.00
10716;BME280;5409;42.620;23.316;2023-04-01T06:12:53;91093.34;;;10.97;100.00
10716;BME280;5409;42.620;23.316;2023-04-01T06:15:30;91091.06;;;10.95;100.00
10716;BME280;5409;42.620;23.316;2023-04-01T06:21:07;91095.56;;;11.27;100.00
10716;BME280;5409;42.620;23.316;2023-04-01T06:23:50;91096.78;;;11.40;100.00
10716;BME280;5409;42.620;23.316;2023-04-01T06:26:30;91095.13;;;11.48;100.00
10716;BME280;5409;42.620;23.316;2023-04-01T06:29:27;91107.28;;;11.47;99.78
10716;BME280;5409;42.620;23.316;2023-04-01T06:32:10;91094.13;;;11.60;95.62
10716;BME280;5409;42.620;23.316;2023-04-01T06:34:52;91063.44;;;11.85;96.51
10716;BME280;5409;42.620;23.316;2023-04-01T06:37:45;91057.09;;;11.94;97.27
10716;BME280;5409;42.620;23.316;2023-04-01T06:43:15;91057.22;;;12.25;94.24
10716;BME280;5409;42.620;23.316;2023-04-01T06:45:48;91050.91;;;12.13;89.61
10716;BME280;5409;42.620;23.316;2023-04-01T06:48:32;91066.78;;;12.15;92.45
10716;BME280;5409;42.620;23.316;2023-04-01T06:51:13;91060.78;;;12.11;95.57
10716;BME280;5409;42.620;23.316;2023-04-01T06:53:54;91063.94;;;12.24;88.99
10716;BME280;5409;42.620;23.316;2023-04-01T06:56:25;91053.31;;;12.31;94.93
10716;BME280;5409;42.620;23.316;2023-04-01T06:58:58;91056.88;;;12.37;92.33
10716;BME280;5409;42.620;23.316;2023-04-01T07:01:29;91046.00;;;12.43;91.25
10716;BME280;5409;42.620;23.316;2023-04-01T07:04:00;91043.22;;;12.37;91.98
10716;BME280;5409;42.620;23.316;2023-04-01T07:06:32;91039.47;;;12.35;91.26
10716;BME280;5409;42.620;23.316;2023-04-01T07:09:05;91030.63;;;12.45;90.38
10716;BME280;5409;42.620;23.316;2023-04-01T07:11:37;91041.94;;;12.58;88.81
10716;BME280;5409;42.620;23.316;2023-04-01T07:14:12;91029.84;;;12.64;78.90
10716;BME280;5409;42.620;23.316;2023-04-01T07:16:43;91023.16;;;12.91;72.23
10716;BME280;5409;42.620;23.316;2023-04-01T07:19:16;91026.94;;;13.30;70.75
10716;BME280;5409;42.620;23.316;2023-04-01T07:21:47;91037.00;;;13.80;70.91
10716;BME280;5409;42.620;23.316;2023-04-01T07:24:21;90999.66;;;13.88;77.47
10716;BME280;5409;42.620;23.316;2023-04-01T07:26:53;91035.97;;;14.19;77.68
10716;BME280;5409;42.620;23.316;2023-04-01T07:29:22;91058.66;;;14.25;74.85
10716;BME280;5409;42.620;23.316;2023-04-01T07:31:58;91068.66;;;14.34;70.16
10716;BME280;5409;42.620;23.316;2023-04-01T07:34:37;91033.13;;;14.67;75.52
10716;BME280;5409;42.620;23.316;2023-04-01T07:37:10;91053.81;;;14.62;71.67
10716;BME280;5409;42.620;23.316;2023-04-01T07:39:45;91049.94;;;14.21;74.93
10716;BME280;5409;42.620;23.316;2023-04-01T07:42:22;91029.28;;;14.31;76.57
10716;BME280;5409;42.620;23.316;2023-04-01T07:44:59;91016.22;;;14.84;66.71
10716;BME280;5409;42.620;23.316;2023-04-01T07:47:38;91018.78;;;15.37;62.00
10716;BME280;5409;42.620;23.316;2023-04-01T07:50:13;91018.50;;;15.68;47.60
10716;BME280;5409;42.620;23.316;2023-04-01T07:52:49;91021.22;;;15.85;59.42
10716;BME280;5409;42.620;23.316;2023-04-01T07:55:21;90998.50;;;15.73;53.26
10716;BME280;5409;42.620;23.316;2023-04-01T07:57:55;91008.97;;;15.80;51.69
10716;BME280;5409;42.620;23.316;2023-04-01T08:00:27;91007.22;;;15.88;45.82
10716;BME280;5409;42.620;23.316;2023-04-01T08:03:16;90991.25;;;15.81;45.91
10716;BME280;5409;42.620;23.316;2023-04-01T08:05:53;91001.78;;;15.72;44.04
10716;BME280;5409;42.620;23.316;2023-04-01T08:08:28;91013.50;;;15.78;45.69
10716;BME280;5409;42.620;23.316;2023-04-01T08:11:05;90988.22;;;15.85;42.62
10716;BME280;5409;42.620;23.316;2023-04-01T08:13:42;90978.16;;;16.14;44.82
10716;BME280;5409;42.620;23.316;2023-04-01T08:16:16;90987.22;;;16.61;42.87
10716;BME280;5409;42.620;23.316;2023-04-01T08:18:52;90977.50;;;16.95;41.99
10716;BME280;5409;42.620;23.316;2023-04-01T08:21:24;90968.50;;;17.58;40.65
10716;BME280;5409;42.620;23.316;2023-04-01T08:23:52;90955.22;;;17.33;39.49
10716;BME280;5409;42.620;23.316;2023-04-01T08:26:28;90957.72;;;17.31;39.72
10716;BME280;5409;42.620;23.316;2023-04-01T08:29:00;90943.72;;;17.29;39.26
10716;BME280;5409;42.620;23.316;2023-04-01T08:31:33;90942.03;;;17.20;38.07
10716;BME280;5409;42.620;23.316;2023-04-01T08:34:03;90923.69;;;17.58;39.23
10716;BME280;5409;42.620;23.316;2023-04-01T08:36:34;90920.09;;;18.11;37.95
10716;BME280;5409;42.620;23.316;2023-04-01T08:39:05;90922.19;;;18.23;37.33
10716;BME280;5409;42.620;23.316;2023-04-01T08:45:05;90896.41;;;18.94;35.83
10716;BME280;5409;42.620;23.316;2023-04-01T08:53:34;90904.44;;;19.11;35.35
10716;BME280;5409;42.620;23.316;2023-04-01T08:56:13;90882.31;;;19.29;34.95
10716;BME280;5409;42.620;23.316;2023-04-01T08:59:04;90889.06;;;19.15;34.69
10716;BME280;5409;42.620;23.316;2023-04-01T09:01:50;90908.03;;;19.06;34.16
10716;BME280;5409;42.620;23.316;2023-04-01T09:04:27;90902.84;;;19.47;32.11
10716;BME280;5409;42.620;23.316;2023-04-01T09:07:10;90918.34;;;19.05;35.30
10716;BME280;5409;42.620;23.316;2023-04-01T09:10:07;90891.47;;;19.37;32.65
10716;BME280;5409;42.620;23.316;2023-04-01T09:16:13;90888.25;;;19.90;31.45
10716;BME280;5409;42.620;23.316;2023-04-01T09:18:59;90897.13;;;18.95;36.59
10716;BME280;5409;42.620;23.316;2023-04-01T09:21:45;90879.19;;;18.70;38.43
10716;BME280;5409;42.620;23.316;2023-04-01T09:24:40;90847.78;;;19.49;33.26
10716;BME280;5409;42.620;23.316;2023-04-01T09:27:16;90869.81;;;20.32;36.03
10716;BME280;5409;42.620;23.316;2023-04-01T09:30:10;90880.38;;;20.07;38.34
10716;BME280;5409;42.620;23.316;2023-04-01T09:33:04;90890.47;;;19.79;38.57
10716;BME280;5409;42.620;23.316;2023-04-01T09:35:42;90854.63;;;19.16;42.26
10716;BME280;5409;42.620;23.316;2023-04-01T09:38:21;90863.16;;;20.01;39.34
10716;BME280;5409;42.620;23.316;2023-04-01T09:40:56;90842.50;;;20.62;35.75
10716;BME280;5409;42.620;23.316;2023-04-01T09:43:28;90891.78;;;21.63;34.26
10716;BME280;5409;42.620;23.316;2023-04-01T09:46:19;90868.28;;;22.12;32.45
10716;BME280;5409;42.620;23.316;2023-04-01T09:51:55;90871.09;;;21.64;34.66
10716;BME280;5409;42.620;23.316;2023-04-01T09:54:37;90843.75;;;22.31;35.49
10716;BME280;5409;42.620;23.316;2023-04-01T09:57:22;90860.13;;;22.93;35.52
10716;BME280;5409;42.620;23.316;2023-04-01T10:03:24;90839.38;;;22.94;30.71
10716;BME280;5409;42.620;23.316;2023-04-01T10:06:22;90826.78;;;22.07;32.10
10716;BME280;5409;42.620;23.316;2023-04-01T10:27:23;90789.44;;;23.83;29.08
10716;BME280;5409;42.620;23.316;2023-04-01T10:30:26;90790.25;;;24.77;28.68
10716;BME280;5409;42.620;23.316;2023-04-01T10:33:19;90791.75;;;25.10;26.95
10716;BME280;5409;42.620;23.316;2023-04-01T10:39:08;90787.00;;;23.20;29.86
10716;BME280;5409;42.620;23.316;2023-04-01T10:45:02;90770.81;;;22.31;29.17
10716;BME280;5409;42.620;23.316;2023-04-01T10:53:42;90761.69;;;21.24;32.66
10716;BME280;5409;42.620;23.316;2023-04-01T10:56:34;90751.59;;;20.53;32.54
10716;BME280;5409;42.620;23.316;2023-04-01T11:02:50;90748.16;;;20.39;32.82
10716;BME280;5409;42.620;23.316;2023-04-01T11:15:05;90755.31;;;19.62;36.12
10716;BME280;5409;42.620;23.316;2023-04-01T11:18:13;90730.78;;;18.44;37.65
10716;BME280;5409;42.620;23.316;2023-04-01T11:21:13;90754.78;;;17.44;41.86
10716;BME280;5409;42.620;23.316;2023-04-01T11:24:00;90739.22;;;16.99;44.98
10716;BME280;5409;42.620;23.316;2023-04-01T11:26:33;90756.94;;;16.80;50.02
10716;BME280;5409;42.620;23.316;2023-04-01T11:29:47;90772.34;;;16.29;53.67
10716;BME280;5409;42.620;23.316;2023-04-01T11:32:29;90796.16;;;15.81;55.56
10716;BME280;5409;42.620;23.316;2023-04-01T11:38:14;90823.13;;;15.83;53.63
10716;BME280;5409;42.620;23.316;2023-04-01T11:40:48;90847.03;;;15.20;74.20
10716;BME280;5409;42.620;23.316;2023-04-01T11:43:22;90858.97;;;13.85;85.93
10716;BME280;5409;42.620;23.316;2023-04-01T11:45:56;90899.34;;;13.38;100.00
10716;BME280;5409;42.620;23.316;2023-04-01T11:48:41;90915.34;;;12.77;100.00
10716;BME280;5409;42.620;23.316;2023-04-01T11:51:29;90950.78;;;11.65;100.00
10716;BME280;5409;42.620;23.316;2023-04-01T11:54:07;90943.34;;;11.31;100.00
10716;BME280;5409;42.620;23.316;2023-04-01T11:56:52;90957.63;;;10.72;100.00
10716;BME280;5409;42.620;23.316;2023-04-01T11:59:45;90977.84;;;10.22;100.00
10716;BME280;5409;42.620;23.316;2023-04-01T12:02:23;90986.56;;;9.74;100.00
10716;BME280;5409;42.620;23.316;2023-04-01T12:05:07;90976.38;;;9.60;100.00
10716;BME280;5409;42.620;23.316;2023-04-01T12:07:55;90941.78;;;9.60;100.00
10716;BME280;5409;42.620;23.316;2023-04-01T12:10:35;90940.66;;;9.67;100.00
10716;BME280;5409;42.620;23.316;2023-04-01T12:13:14;90924.72;;;9.74;100.00
10716;BME280;5409;42.620;23.316;2023-04-01T12:15:59;90924.97;;;10.00;100.00
10716;BME280;5409;42.620;23.316;2023-04-01T12:18:34;90924.31;;;10.19;100.00
10716;BME280;5409;42.620;23.316;2023-04-01T12:21:12;90928.81;;;10.36;100.00
10716;BME280;5409;42.620;23.316;2023-04-01T12:23:55;90940.56;;;10.42;100.00
10716;BME280;5409;42.620;23.316;2023-04-01T12:29:48;90938.25;;;10.84;100.00
10716;BME280;5409;42.620;23.316;2023-04-01T12:32:24;90934.44;;;10.96;100.00
10716;BME280;5409;42.620;23.316;2023-04-01T12:35:04;90923.63;;;11.02;100.00
10716;BME280;5409;42.620;23.316;2023-04-01T12:37:41;90960.53;;;11.17;100.00
10716;BME280;5409;42.620;23.316;2023-04-01T12:40:39;90950.78;;;11.31;100.00
10716;BME280;5409;42.620;23.316;2023-04-01T12:43:34;90974.34;;;11.14;100.00
10716;BME280;5409;42.620;23.316;2023-04-01T12:46:18;90972.25;;;10.89;100.00
10716;BME280;5409;42.620;23.316;2023-04-01T12:52:10;90956.97;;;10.48;100.00
10716;BME280;5409;42.620;23.316;2023-04-01T13:01:11;90947.78;;;10.60;100.00
10716;BME280;5409;42.620;23.316;2023-04-01T13:03:55;90936.53;;;10.87;100.00
10716;BME280;5409;42.620;23.316;2023-04-01T13:06:34;90945.25;;;10.91;100.00
10716;BME280;5409;42.620;23.316;2023-04-01T13:09:14;90960.81;;;10.70;100.00
10716;BME280;5409;42.620;23.316;2023-04-01T13:11:54;90958.13;;;10.27;100.00
10716;BME280;5409;42.620;23.316;2023-04-01T13:14:44;90907.47;;;9.92;100.00
10716;BME280;5409;42.620;23.316;2023-04-01T13:17:21;90865.34;;;9.87;100.00
10716;BME280;5409;42.620;23.316;2023-04-01T13:19:53;90857.06;;;10.39;100.00
10716;BME280;5409;42.620;23.316;2023-04-01T13:22:30;90878.00;;;10.82;100.00
10716;BME280;5409;42.620;23.316;2023-04-01T13:25:02;90878.97;;;11.19;100.00
10716;BME280;5409;42.620;23.316;2023-04-01T13:27:35;90837.22;;;11.33;100.00
10716;BME280;5409;42.620;23.316;2023-04-01T13:30:18;90864.78;;;12.00;100.00
10716;BME280;5409;42.620;23.316;2023-04-01T13:32:50;90880.28;;;12.70;100.00
10716;BME280;5409;42.620;23.316;2023-04-01T13:35:30;90884.63;;;12.88;100.00
10716;BME280;5409;42.620;23.316;2023-04-01T13:38:12;90880.13;;;12.85;100.00
10716;BME280;5409;42.620;23.316;2023-04-01T13:40:50;90884.03;;;12.78;100.00
10716;BME280;5409;42.620;23.316;2023-04-01T13:43:23;90894.22;;;12.72;100.00
10716;BME280;5409;42.620;23.316;2023-04-01T13:46:08;90881.94;;;12.32;100.00
10716;BME280;5409;42.620;23.316;2023-04-01T13:49:01;90878.03;;;12.38;100.00
10716;BME280;5409;42.620;23.316;2023-04-01T13:58:12;90863.59;;;12.99;100.00
10716;BME280;5409;42.620;23.316;2023-04-01T14:00:52;90840.22;;;13.04;91.17
10716;BME280;5409;42.620;23.316;2023-04-01T14:03:29;90853.44;;;13.64;85.67
10716;BME280;5409;42.620;23.316;2023-04-01T14:06:11;90850.69;;;13.64;88.60
10716;BME280;5409;42.620;23.316;2023-04-01T14:08:50;90854.25;;;13.22;84.69
10716;BME280;5409;42.620;23.316;2023-04-01T14:11:24;90836.63;;;12.87;95.13
10716;BME280;5409;42.620;23.316;2023-04-01T14:13:59;90845.25;;;12.74;86.97
10716;BME280;5409;42.620;23.316;2023-04-01T14:16:55;90837.00;;;12.69;89.83
10716;BME280;5409;42.620;23.316;2023-04-01T14:19:39;90850.56;;;12.52;97.11
10716;BME280;5409;42.620;23.316;2023-04-01T14:22:19;90828.00;;;12.63;96.40
10716;BME280;5409;42.620;23.316;2023-04-01T14:25:01;90819.44;;;12.81;93.38
10716;BME280;5409;42.620;23.316;2023-04-01T14:27:41;90821.41;;;12.80;91.77
10716;BME280;5409;42.620;23.316;2023-04-01T14:30:31;90807.97;;;12.71;92.12
10716;BME280;5409;42.620;23.316;2023-04-01T14:33:09;90797.22;;;12.68;92.76
10716;BME280;5409;42.620;23.316;2023-04-01T14:35:43;90810.59;;;12.55;92.20
10716;BME280;5409;42.620;23.316;2023-04-01T14:38:28;90816.41;;;12.73;84.93
10716;BME280;5409;42.620;23.316;2023-04-01T14:41:08;90802.31;;;12.86;89.13
10716;BME280;5409;42.620;23.316;2023-04-01T14:47:09;90801.41;;;13.00;87.75
10716;BME280;5409;42.620;23.316;2023-04-01T14:49:39;90793.00;;;13.09;88.67
10716;BME280;5409;42.620;23.316;2023-04-01T14:52:13;90782.13;;;13.25;90.11
10716;BME280;5409;42.620;23.316;2023-04-01T14:54:42;90784.19;;;13.47;89.16
10716;BME280;5409;42.620;23.316;2023-04-01T14:57:12;90783.19;;;13.44;85.61
10716;BME280;5409;42.620;23.316;2023-04-01T14:59:40;90808.56;;;13.45;83.91
10716;BME280;5409;42.620;23.316;2023-04-01T15:02:18;90799.66;;;13.61;81.41
10716;BME280;5409;42.620;23.316;2023-04-01T15:04:58;90821.34;;;13.75;79.05
10716;BME280;5409;42.620;23.316;2023-04-01T15:07:59;90843.56;;;13.93;79.11
10716;BME280;5409;42.620;23.316;2023-04-01T15:10:41;90840.78;;;13.88;80.78
10716;BME280;5409;42.620;23.316;2023-04-01T15:13:13;90834.28;;;13.74;82.92